sensor_id;sensor_type;location;lat;lon;timestamp;temperature;humidity
52397;DHT22;38322;53.108;6.308;2022-12-16T06:02:44;0.50;99.90
52397;DHT22;38322;53.108;6.308;2022-12-16T06:05:28;0.50;99.90
52397;DHT22;38322;53.108;6.308;2022-12-16T06:08:13;0.50;99.90
52397;DHT22;38322;53.108;6.308;2022-12-16T06:10:57;0.40;99.90
52397;DHT22;38322;53.108;6.308;2022-12-16T06:13:41;0.40;99.90
52397;DHT22;38322;53.108;6.308;2022-12-16T06:16:26;0.40;99.90
52397;DHT22;38322;53.108;6.308;2022-12-16T06:19:10;0.40;99.90
52397;DHT22;38322;53.108;6.308;2022-12-16T06:21:54;0.50;99.90
52397;DHT22;38322;53.108;6.308;2022-12-16T06:24:38;0.40;99.90
52397;DHT22;38322;53.108;6.308;2022-12-16T06:27:23;0.40;99.90
52397;DHT22;38322;53.108;6.308;2022-12-16T06:30:08;0.40;99.90
52397;DHT22;38322;53.108;6.308;2022-12-16T06:32:52;0.40;99.90
52397;DHT22;38322;53.108;6.308;2022-12-16T06:35:37;0.40;99.90
52397;DHT22;38322;53.108;6.308;2022-12-16T06:38:21;0.50;99.90
52397;DHT22;38322;53.108;6.308;2022-12-16T06:41:05;0.50;99.90
52397;DHT22;38322;53.108;6.308;2022-12-16T06:43:50;0.50;99.90
52397;DHT22;38322;53.108;6.308;2022-12-16T06:46:34;0.50;99.90
52397;DHT22;38322;53.108;6.308;2022-12-16T06:49:33;0.50;99.90
52397;DHT22;38322;53.108;6.308;2022-12-16T06:52:17;0.40;99.90
52397;DHT22;38322;53.108;6.308;2022-12-16T06:55:02;0.40;99.90
52397;DHT22;38322;53.108;6.308;2022-12-16T06:57:46;0.40;99.90
52397;DHT22;38322;53.108;6.308;2022-12-16T07:00:30;0.40;99.90
52397;DHT22;38322;53.108;6.308;2022-12-16T07:03:15;0.50;99.90
52397;DHT22;38322;53.108;6.308;2022-12-16T07:05:59;0.50;99.90
52397;DHT22;38322;53.108;6.308;2022-12-16T07:08:43;0.40;99.90
52397;DHT22;38322;53.108;6.308;2022-12-16T07:11:27;0.50;99.90
52397;DHT22;38322;53.108;6.308;2022-12-16T07:14:12;0.40;99.90
52397;DHT22;38322;53.108;6.308;2022-12-16T07:16:56;0.50;99.90
52397;DHT22;38322;53.108;6.308;2022-12-16T07:19:41;0.50;99.90
52397;DHT22;38322;53.108;6.308;2022-12-16T07:22:25;0.40;99.90
52397;DHT22;38322;53.108;6.308;2022-12-16T07:25:09;0.40;99.90
52397;DHT22;38322;53.108;6.308;2022-12-16T07:27:53;0.40;99.90
52397;DHT22;38322;53.108;6.308;2022-12-16T07:30:38;0.40;99.90
52397;DHT22;38322;53.108;6.308;2022-12-16T07:33:22;0.50;99.90
52397;DHT22;38322;53.108;6.308;2022-12-16T07:36:06;0.40;99.90
52397;DHT22;38322;53.108;6.308;2022-12-16T07:38:51;0.40;99.90
52397;DHT22;38322;53.108;6.308;2022-12-16T07:41:35;0.40;99.90
52397;DHT22;38322;53.108;6.308;2022-12-16T07:44:37;0.40;99.90
52397;DHT22;38322;53.108;6.308;2022-12-16T07:47:21;0.50;99.90
52397;DHT22;38322;53.108;6.308;2022-12-16T07:50:06;0.50;99.90
52397;DHT22;38322;53.108;6.308;2022-12-16T07:52:59;0.40;99.90
52397;DHT22;38322;53.108;6.308;2022-12-16T07:55:44;0.40;99.90
52397;DHT22;38322;53.108;6.308;2022-12-16T07:58:28;0.40;99.90
52397;DHT22;38322;53.108;6.308;2022-12-16T08:01:14;0.40;99.90
52397;DHT22;38322;53.108;6.308;2022-12-16T08:03:58;0.40;99.90
52397;DHT22;38322;53.108;6.308;2022-12-16T08:06:43;0.40;99.90
52397;DHT22;38322;53.108;6.308;2022-12-16T08:09:27;0.40;99.90
52397;DHT22;38322;53.108;6.308;2022-12-16T08:12:12;0.40;99.90
52397;DHT22;38322;53.108;6.308;2022-12-16T08:14:56;0.40;99.90
52397;DHT22;38322;53.108;6.308;2022-12-16T08:17:48;0.40;99.90
52397;DHT22;38322;53.108;6.308;2022-12-16T08:20:32;0.40;99.90
52397;DHT22;38322;53.108;6.308;2022-12-16T08:23:17;0.30;99.90
52397;DHT22;38322;53.108;6.308;2022-12-16T08:26:09;0.30;99.90
52397;DHT22;38322;53.108;6.308;2022-12-16T08:28:54;0.30;99.90
52397;DHT22;38322;53.108;6.308;2022-12-16T08:31:38;0.30;99.90
52397;DHT22;38322;53.108;6.308;2022-12-16T08:34:22;0.30;99.90
52397;DHT22;38322;53.108;6.308;2022-12-16T08:37:06;0.30;99.90
52397;DHT22;38322;53.108;6.308;2022-12-16T08:39:51;0.30;99.90
52397;DHT22;38322;53.108;6.308;2022-12-16T08:42:35;0.30;99.90
52397;DHT22;38322;53.108;6.308;2022-12-16T08:45:20;0.30;99.90
52397;DHT22;38322;53.108;6.308;2022-12-16T08:48:04;0.30;99.90
52397;DHT22;38322;53.108;6.308;2022-12-16T08:50:49;0.30;99.90
52397;DHT22;38322;53.108;6.308;2022-12-16T08:53:33;0.30;99.90
52397;DHT22;38322;53.108;6.308;2022-12-16T08:56:18;0.30;99.90
52397;DHT22;38322;53.108;6.308;2022-12-16T08:59:02;0.30;99.90
52397;DHT22;38322;53.108;6.308;2022-12-16T09:01:47;0.30;99.90
52397;DHT22;38322;53.108;6.308;2022-12-16T09:04:31;0.30;99.90
52397;DHT22;38322;53.108;6.308;2022-12-16T09:07:15;0.30;99.90
52397;DHT22;38322;53.108;6.308;2022-12-16T09:09:59;0.30;99.90
52397;DHT22;38322;53.108;6.308;2022-12-16T09:12:44;0.20;99.90
52397;DHT22;38322;53.108;6.308;2022-12-16T09:15:28;0.30;99.90
52397;DHT22;38322;53.108;6.308;2022-12-16T09:18:12;0.20;99.90
52397;DHT22;38322;53.108;6.308;2022-12-16T09:20:57;0.20;99.90
52397;DHT22;38322;53.108;6.308;2022-12-16T09:23:42;0.30;99.90
52397;DHT22;38322;53.108;6.308;2022-12-16T09:26:28;0.20;99.90
52397;DHT22;38322;53.108;6.308;2022-12-16T09:29:12;0.20;99.90
52397;DHT22;38322;53.108;6.308;2022-12-16T09:31:56;0.20;99.90
52397;DHT22;38322;53.108;6.308;2022-12-16T09:34:41;0.20;99.90
52397;DHT22;38322;53.108;6.308;2022-12-16T09:37:25;0.20;99.90
52397;DHT22;38322;53.108;6.308;2022-12-16T09:40:13;0.20;99.90
52397;DHT22;38322;53.108;6.308;2022-12-16T09:49:23;0.20;99.90
52397;DHT22;38322;53.108;6.308;2022-12-16T09:52:16;0.20;99.90
52397;DHT22;38322;53.108;6.308;2022-12-16T09:55:04;0.20;99.90
52397;DHT22;38322;53.108;6.308;2022-12-16T09:57:49;0.20;99.90
52397;DHT22;38322;53.108;6.308;2022-12-16T10:00:33;0.20;99.90
52397;DHT22;38322;53.108;6.308;2022-12-16T10:03:28;0.20;99.90
52397;DHT22;38322;53.108;6.308;2022-12-16T10:06:26;0.20;99.90
52397;DHT22;38322;53.108;6.308;2022-12-16T10:09:26;0.20;99.90
52397;DHT22;38322;53.108;6.308;2022-12-16T10:12:22;0.20;99.90
52397;DHT22;38322;53.108;6.308;2022-12-16T10:15:32;0.20;99.90
52397;DHT22;38322;53.108;6.308;2022-12-16T10:21:27;0.30;99.90
52397;DHT22;38322;53.108;6.308;2022-12-16T10:24:31;0.20;99.90
52397;DHT22;38322;53.108;6.308;2022-12-16T10:27:21;0.20;99.90
52397;DHT22;38322;53.108;6.308;2022-12-16T10:30:26;0.20;99.90
52397;DHT22;38322;53.108;6.308;2022-12-16T10:33:13;0.20;99.90
52397;DHT22;38322;53.108;6.308;2022-12-16T10:35:58;0.20;99.90
52397;DHT22;38322;53.108;6.308;2022-12-16T10:38:51;0.30;99.90
52397;DHT22;38322;53.108;6.308;2022-12-16T10:41:39;0.20;99.90
52397;DHT22;38322;53.108;6.308;2022-12-16T10:44:30;0.20;99.90
52397;DHT22;38322;53.108;6.308;2022-12-16T10:47:16;0.20;99.90
52397;DHT22;38322;53.108;6.308;2022-12-16T10:50:00;0.20;99.90
52397;DHT22;38322;53.108;6.308;2022-12-16T10:53:08;0.20;99.90
52397;DHT22;38322;53.108;6.308;2022-12-16T10:58:52;0.20;99.90
52397;DHT22;38322;53.108;6.308;2022-12-16T11:01:37;0.30;99.90
52397;DHT22;38322;53.108;6.308;2022-12-16T11:04:34;0.30;99.90
52397;DHT22;38322;53.108;6.308;2022-12-16T11:07:29;0.30;99.90
52397;DHT22;38322;53.108;6.308;2022-12-16T11:10:23;0.30;99.90
52397;DHT22;38322;53.108;6.308;2022-12-16T11:13:17;0.30;99.90
52397;DHT22;38322;53.108;6.308;2022-12-16T11:18:50;0.30;99.90
52397;DHT22;38322;53.108;6.308;2022-12-16T11:21:35;0.30;99.90
52397;DHT22;38322;53.108;6.308;2022-12-16T11:24:19;0.30;99.90
52397;DHT22;38322;53.108;6.308;2022-12-16T11:27:09;0.30;99.90
52397;DHT22;38322;53.108;6.308;2022-12-16T11:29:58;0.30;99.90
52397;DHT22;38322;53.108;6.308;2022-12-16T11:32:52;0.30;99.90
52397;DHT22;38322;53.108;6.308;2022-12-16T11:35:40;0.20;99.90
52397;DHT22;38322;53.108;6.308;2022-12-16T11:38:46;0.20;99.90
52397;DHT22;38322;53.108;6.308;2022-12-16T11:41:35;0.20;99.90
52397;DHT22;38322;53.108;6.308;2022-12-16T11:44:39;0.30;99.90
52397;DHT22;38322;53.108;6.308;2022-12-16T11:47:35;0.30;99.90
52397;DHT22;38322;53.108;6.308;2022-12-16T11:50:19;0.30;99.90
52397;DHT22;38322;53.108;6.308;2022-12-16T11:53:24;0.30;99.90
52397;DHT22;38322;53.108;6.308;2022-12-16T11:56:15;0.20;99.90
52397;DHT22;38322;53.108;6.308;2022-12-16T11:59:09;0.30;99.90
52397;DHT22;38322;53.108;6.308;2022-12-16T12:01:58;0.20;99.90
52397;DHT22;38322;53.108;6.308;2022-12-16T12:04:48;0.20;99.90
52397;DHT22;38322;53.108;6.308;2022-12-16T12:07:44;0.20;99.90
52397;DHT22;38322;53.108;6.308;2022-12-16T12:10:46;0.20;99.90
52397;DHT22;38322;53.108;6.308;2022-12-16T12:13:39;0.20;99.90
52397;DHT22;38322;53.108;6.308;2022-12-16T12:16:39;0.30;99.90
52397;DHT22;38322;53.108;6.308;2022-12-16T12:19:40;0.30;99.90
52397;DHT22;38322;53.108;6.308;2022-12-16T12:22:35;0.30;99.90
52397;DHT22;38322;53.108;6.308;2022-12-16T12:25:44;0.30;99.90
52397;DHT22;38322;53.108;6.308;2022-12-16T12:31:32;0.30;99.90
52397;DHT22;38322;53.108;6.308;2022-12-16T12:34:41;0.30;99.90
52397;DHT22;38322;53.108;6.308;2022-12-16T12:37:41;0.30;99.90
52397;DHT22;38322;53.108;6.308;2022-12-16T12:44:02;0.30;99.90
52397;DHT22;38322;53.108;6.308;2022-12-16T12:46:56;0.30;99.90
52397;DHT22;38322;53.108;6.308;2022-12-16T12:53:17;0.30;99.90
52397;DHT22;38322;53.108;6.308;2022-12-16T12:56:09;0.30;99.90
52397;DHT22;38322;53.108;6.308;2022-12-16T12:59:02;0.30;99.90
52397;DHT22;38322;53.108;6.308;2022-12-16T13:01:49;0.30;99.90
52397;DHT22;38322;53.108;6.308;2022-12-16T13:04:35;0.40;99.90
52397;DHT22;38322;53.108;6.308;2022-12-16T13:07:21;0.40;99.90
52397;DHT22;38322;53.108;6.308;2022-12-16T13:13:27;0.40;99.90
52397;DHT22;38322;53.108;6.308;2022-12-16T13:16:54;0.40;99.90
52397;DHT22;38322;53.108;6.308;2022-12-16T13:19:40;0.40;99.90
52397;DHT22;38322;53.108;6.308;2022-12-16T13:22:33;0.40;99.90
52397;DHT22;38322;53.108;6.308;2022-12-16T13:25:43;0.50;99.90
52397;DHT22;38322;53.108;6.308;2022-12-16T13:28:35;0.40;99.90
52397;DHT22;38322;53.108;6.308;2022-12-16T13:31:20;0.50;99.90
52397;DHT22;38322;53.108;6.308;2022-12-16T13:37:01;0.50;99.90
52397;DHT22;38322;53.108;6.308;2022-12-16T13:40:04;0.50;99.90
52397;DHT22;38322;53.108;6.308;2022-12-16T13:42:51;0.50;99.90
52397;DHT22;38322;53.108;6.308;2022-12-16T13:45:40;0.50;99.90
52397;DHT22;38322;53.108;6.308;2022-12-16T13:48:29;0.50;99.90
52397;DHT22;38322;53.108;6.308;2022-12-16T13:54:34;0.50;99.90
52397;DHT22;38322;53.108;6.308;2022-12-16T13:57:22;0.60;99.90
52397;DHT22;38322;53.108;6.308;2022-12-16T14:00:21;0.50;99.90
52397;DHT22;38322;53.108;6.308;2022-12-16T14:03:21;0.60;99.90
52397;DHT22;38322;53.108;6.308;2022-12-16T14:06:16;0.60;99.90
52397;DHT22;38322;53.108;6.308;2022-12-16T14:09:03;0.50;99.90
52397;DHT22;38322;53.108;6.308;2022-12-16T14:14:37;0.50;99.90
52397;DHT22;38322;53.108;6.308;2022-12-16T14:17:32;0.50;99.90
52397;DHT22;38322;53.108;6.308;2022-12-16T14:20:28;0.50;99.90
52397;DHT22;38322;53.108;6.308;2022-12-16T14:23:24;0.50;99.90
52397;DHT22;38322;53.108;6.308;2022-12-16T14:26:12;0.50;99.90
52397;DHT22;38322;53.108;6.308;2022-12-16T14:28:57;0.50;99.90
52397;DHT22;38322;53.108;6.308;2022-12-16T14:31:44;0.50;99.90
52397;DHT22;38322;53.108;6.308;2022-12-16T14:34:32;0.50;99.90
52397;DHT22;38322;53.108;6.308;2022-12-16T14:37:22;0.50;99.90
52397;DHT22;38322;53.108;6.308;2022-12-16T14:40:26;0.50;99.90
52397;DHT22;38322;53.108;6.308;2022-12-16T14:43:13;0.50;99.90
52397;DHT22;38322;53.108;6.308;2022-12-16T14:45:58;0.50;99.90
52397;DHT22;38322;53.108;6.308;2022-12-16T14:48:46;0.50;99.90
52397;DHT22;38322;53.108;6.308;2022-12-16T14:51:37;0.50;99.90
52397;DHT22;38322;53.108;6.308;2022-12-16T14:57:18;0.50;99.90
52397;DHT22;38322;53.108;6.308;2022-12-16T15:03:10;0.40;99.90
52397;DHT22;38322;53.108;6.308;2022-12-16T15:05:57;0.40;99.90
52397;DHT22;38322;53.108;6.308;2022-12-16T15:08:55;0.40;99.90
52397;DHT22;38322;53.108;6.308;2022-12-16T15:11:41;0.40;99.90
52397;DHT22;38322;53.108;6.308;2022-12-16T15:14:31;0.40;99.90
52397;DHT22;38322;53.108;6.308;2022-12-16T15:17:20;0.30;99.90
52397;DHT22;38322;53.108;6.308;2022-12-16T15:20:20;0.30;99.90
52397;DHT22;38322;53.108;6.308;2022-12-16T15:26:02;0.30;99.90
52397;DHT22;38322;53.108;6.308;2022-12-16T15:28:47;0.30;99.90
52397;DHT22;38322;53.108;6.308;2022-12-16T15:31:33;0.30;99.90
52397;DHT22;38322;53.108;6.308;2022-12-16T15:37:12;0.20;99.90
52397;DHT22;38322;53.108;6.308;2022-12-16T15:39:57;0.20;99.90
52397;DHT22;38322;53.108;6.308;2022-12-16T15:42:41;0.20;99.90
52397;DHT22;38322;53.108;6.308;2022-12-16T15:45:29;0.20;99.90
52397;DHT22;38322;53.108;6.308;2022-12-16T15:48:20;0.20;99.90
52397;DHT22;38322;53.108;6.308;2022-12-16T15:54:18;0.20;99.90
52397;DHT22;38322;53.108;6.308;2022-12-16T15:57:30;0.10;99.90
52397;DHT22;38322;53.108;6.308;2022-12-16T16:00:20;0.20;99.90
52397;DHT22;38322;53.108;6.308;2022-12-16T16:03:17;0.20;99.90
52397;DHT22;38322;53.108;6.308;2022-12-16T16:06:02;0.20;99.90
52397;DHT22;38322;53.108;6.308;2022-12-16T16:08:50;0.20;99.90
52397;DHT22;38322;53.108;6.308;2022-12-16T16:11:34;0.10;99.90
52397;DHT22;38322;53.108;6.308;2022-12-16T16:14:35;0.20;99.90
52397;DHT22;38322;53.108;6.308;2022-12-16T16:17:21;0.20;99.90
52397;DHT22;38322;53.108;6.308;2022-12-16T16:20:06;0.20;99.90
52397;DHT22;38322;53.108;6.308;2022-12-16T16:22:52;0.20;99.90
52397;DHT22;38322;53.108;6.308;2022-12-16T16:25:37;0.20;99.90
52397;DHT22;38322;53.108;6.308;2022-12-16T16:28:21;0.20;99.90
52397;DHT22;38322;53.108;6.308;2022-12-16T16:31:09;0.20;99.90
52397;DHT22;38322;53.108;6.308;2022-12-16T16:33:53;0.20;99.90
52397;DHT22;38322;53.108;6.308;2022-12-16T16:36:38;0.20;99.90
52397;DHT22;38322;53.108;6.308;2022-12-16T16:39:22;0.20;99.90
52397;DHT22;38322;53.108;6.308;2022-12-16T16:42:08;0.10;99.90
52397;DHT22;38322;53.108;6.308;2022-12-16T16:44:52;0.10;99.90
52397;DHT22;38322;53.108;6.308;2022-12-16T16:47:37;0.10;99.90
52397;DHT22;38322;53.108;6.308;2022-12-16T16:50:21;0.10;99.90
52397;DHT22;38322;53.108;6.308;2022-12-16T16:53:13;0.10;99.90
52397;DHT22;38322;53.108;6.308;2022-12-16T16:55:58;0.00;99.90
52397;DHT22;38322;53.108;6.308;2022-12-16T16:58:42;0.00;99.90
52397;DHT22;38322;53.108;6.308;2022-12-16T17:01:26;0.00;99.90
52397;DHT22;38322;53.108;6.308;2022-12-16T17:04:11;0.00;99.90
52397;DHT22;38322;53.108;6.308;2022-12-16T17:06:55;0.00;99.90
52397;DHT22;38322;53.108;6.308;2022-12-16T17:09:40;0.00;99.90
52397;DHT22;38322;53.108;6.308;2022-12-16T17:12:26;-0.10;99.90
52397;DHT22;38322;53.108;6.308;2022-12-16T17:15:20;0.00;99.90
52397;DHT22;38322;53.108;6.308;2022-12-16T17:18:06;0.00;99.90
52397;DHT22;38322;53.108;6.308;2022-12-16T17:20:51;-0.10;99.90
52397;DHT22;38322;53.108;6.308;2022-12-16T17:23:35;-0.10;99.90
52397;DHT22;38322;53.108;6.308;2022-12-16T17:26:20;-0.10;99.90
52397;DHT22;38322;53.108;6.308;2022-12-16T17:29:05;-0.10;99.90
52397;DHT22;38322;53.108;6.308;2022-12-16T17:31:49;-0.20;99.90
52397;DHT22;38322;53.108;6.308;2022-12-16T17:34:34;-0.10;99.90
52397;DHT22;38322;53.108;6.308;2022-12-16T17:37:18;-0.20;99.90
52397;DHT22;38322;53.108;6.308;2022-12-16T17:40:03;-0.20;99.90
52397;DHT22;38322;53.108;6.308;2022-12-16T17:42:47;-0.20;99.90
52397;DHT22;38322;53.108;6.308;2022-12-16T17:45:31;-0.20;99.90
52397;DHT22;38322;53.108;6.308;2022-12-16T17:48:15;-0.20;99.90
52397;DHT22;38322;53.108;6.308;2022-12-16T17:51:01;-0.20;99.90
52397;DHT22;38322;53.108;6.308;2022-12-16T17:53:45;-0.20;99.90
52397;DHT22;38322;53.108;6.308;2022-12-16T17:56:30;-0.20;99.90
52397;DHT22;38322;53.108;6.308;2022-12-16T17:59:14;-0.20;99.90
52397;DHT22;38322;53.108;6.308;2022-12-16T18:01:58;-0.20;99.90
52397;DHT22;38322;53.108;6.308;2022-12-16T18:04:43;-0.20;99.90
52397;DHT22;38322;53.108;6.308;2022-12-16T18:07:27;-0.20;99.90
52397;DHT22;38322;53.108;6.308;2022-12-16T18:10:11;-0.20;99.90
52397;DHT22;38322;53.108;6.308;2022-12-16T18:12:55;-0.20;99.90
52397;DHT22;38322;53.108;6.308;2022-12-16T18:15:40;-0.20;99.90
52397;DHT22;38322;53.108;6.308;2022-12-16T18:18:24;-0.20;99.90
52397;DHT22;38322;53.108;6.308;2022-12-16T18:21:10;-0.30;99.90
52397;DHT22;38322;53.108;6.308;2022-12-16T18:23:55;-0.30;99.90
52397;DHT22;38322;53.108;6.308;2022-12-16T18:26:39;-0.30;99.90
52397;DHT22;38322;53.108;6.308;2022-12-16T18:29:24;-0.30;99.90
52397;DHT22;38322;53.108;6.308;2022-12-16T18:32:09;-0.30;99.90
52397;DHT22;38322;53.108;6.308;2022-12-16T18:34:53;-0.30;99.90
52397;DHT22;38322;53.108;6.308;2022-12-16T18:37:37;-0.40;99.90
52397;DHT22;38322;53.108;6.308;2022-12-16T18:40:30;-0.40;99.90
52397;DHT22;38322;53.108;6.308;2022-12-16T18:43:14;-0.40;99.90
52397;DHT22;38322;53.108;6.308;2022-12-16T18:45:58;-0.30;99.90
52397;DHT22;38322;53.108;6.308;2022-12-16T18:48:43;-0.40;99.90
52397;DHT22;38322;53.108;6.308;2022-12-16T18:51:27;-0.50;99.90
52397;DHT22;38322;53.108;6.308;2022-12-16T18:54:11;-0.50;99.90
52397;DHT22;38322;53.108;6.308;2022-12-16T18:56:55;-0.50;99.90
52397;DHT22;38322;53.108;6.308;2022-12-16T18:59:40;-0.50;99.90
52397;DHT22;38322;53.108;6.308;2022-12-16T19:02:24;-0.50;99.90
52397;DHT22;38322;53.108;6.308;2022-12-16T19:05:08;-0.50;99.90
52397;DHT22;38322;53.108;6.308;2022-12-16T19:07:53;-0.60;99.90
52397;DHT22;38322;53.108;6.308;2022-12-16T19:10:37;-0.60;99.90
52397;DHT22;38322;53.108;6.308;2022-12-16T19:13:21;-0.60;99.90
52397;DHT22;38322;53.108;6.308;2022-12-16T19:16:06;-0.60;99.90
52397;DHT22;38322;53.108;6.308;2022-12-16T19:18:50;-0.60;99.90
52397;DHT22;38322;53.108;6.308;2022-12-16T19:21:34;-0.60;99.90
52397;DHT22;38322;53.108;6.308;2022-12-16T19:24:19;-0.60;99.90
52397;DHT22;38322;53.108;6.308;2022-12-16T19:27:03;-0.60;99.90
52397;DHT22;38322;53.108;6.308;2022-12-16T19:29:47;-0.60;99.90
52397;DHT22;38322;53.108;6.308;2022-12-16T19:32:32;-0.60;99.90
52397;DHT22;38322;53.108;6.308;2022-12-16T19:35:16;-0.60;99.90
52397;DHT22;38322;53.108;6.308;2022-12-16T19:38:01;-0.70;99.90
52397;DHT22;38322;53.108;6.308;2022-12-16T19:40:52;-0.70;99.90
52397;DHT22;38322;53.108;6.308;2022-12-16T19:43:37;-0.70;99.90
52397;DHT22;38322;53.108;6.308;2022-12-16T19:46:21;-0.70;99.90
52397;DHT22;38322;53.108;6.308;2022-12-16T19:49:05;-0.70;99.90
52397;DHT22;38322;53.108;6.308;2022-12-16T19:51:49;-0.70;99.90
52397;DHT22;38322;53.108;6.308;2022-12-16T19:54:34;-0.70;99.90
52397;DHT22;38322;53.108;6.308;2022-12-16T19:57:18;-0.70;99.90
52397;DHT22;38322;53.108;6.308;2022-12-16T20:00:04;-0.70;99.90
52397;DHT22;38322;53.108;6.308;2022-12-16T20:02:49;-0.80;99.90
52397;DHT22;38322;53.108;6.308;2022-12-16T20:05:33;-0.80;99.90
52397;DHT22;38322;53.108;6.308;2022-12-16T20:08:17;-0.80;99.90
52397;DHT22;38322;53.108;6.308;2022-12-16T20:11:05;-0.80;99.90
52397;DHT22;38322;53.108;6.308;2022-12-16T20:13:53;-0.70;99.90
52397;DHT22;38322;53.108;6.308;2022-12-16T20:16:39;-0.80;99.90
52397;DHT22;38322;53.108;6.308;2022-12-16T20:19:23;-0.80;99.90
52397;DHT22;38322;53.108;6.308;2022-12-16T20:22:07;-0.80;99.90
52397;DHT22;38322;53.108;6.308;2022-12-16T20:24:52;-0.80;99.90
52397;DHT22;38322;53.108;6.308;2022-12-16T20:27:37;-0.80;99.90
52397;DHT22;38322;53.108;6.308;2022-12-16T20:30:22;-0.80;99.90
52397;DHT22;38322;53.108;6.308;2022-12-16T20:33:11;-0.80;99.90
52397;DHT22;38322;53.108;6.308;2022-12-16T20:35:57;-0.90;99.90
52397;DHT22;38322;53.108;6.308;2022-12-16T20:38:41;-0.90;99.90
52397;DHT22;38322;53.108;6.308;2022-12-16T20:41:26;-0.90;99.90
52397;DHT22;38322;53.108;6.308;2022-12-16T20:44:10;-0.90;99.90
52397;DHT22;38322;53.108;6.308;2022-12-16T20:46:54;-0.90;99.90
52397;DHT22;38322;53.108;6.308;2022-12-16T20:49:39;-0.90;99.90
52397;DHT22;38322;53.108;6.308;2022-12-16T20:52:24;-1.00;99.90
52397;DHT22;38322;53.108;6.308;2022-12-16T20:55:08;-1.00;99.90
52397;DHT22;38322;53.108;6.308;2022-12-16T20:57:53;-1.00;99.90
